Time;durP1;ratioP1;P1;durP2;ratioP2;P2;SDS_P1;SDS_P2;PMS_P1;PMS_P2;Temp;Humidity;BMP_temperature;BMP_pressure;BME280_temperature;BME280_humidity;BME280_pressure;Samples;Min_cycle;Max_cycle;Signal;HPM_P1;HPM_P2
2022/01/11 00:00:38;;;;;;;0.10;0.10;;;;;;;;;;1720807;28;20224;-71
2022/01/11 00:01:29;;;;;;;0.40;0.40;;;;;;;;;;1724999;28;20263;-71
2022/01/11 00:02:21;;;;;;;0.30;0.30;;;;;;;;;;1725837;28;20203;-71
2022/01/11 00:03:14;;;;;;;0.10;0.10;;;;;;;;;;1725294;28;20231;-71
2022/01/11 00:04:06;;;;;;;0.20;0.20;;;;;;;;;;1725075;28;20232;-71
2022/01/11 00:04:57;;;;;;;0.10;0.10;;;;;;;;;;1724979;28;20216;-71
2022/01/11 00:05:55;;;;;;;0.20;0.20;;;;;;;;;;1723499;28;20232;-71
2022/01/11 00:06:48;;;;;;;0.20;0.20;;;;;;;;;;1724742;28;20277;-71
2022/01/11 00:07:43;;;;;;;0.10;0.10;;;;;;;;;;1725464;28;20637;-71
2022/01/11 00:08:36;;;;;;;0.47;0.47;;;;;;;;;;1724481;28;20212;-71
2022/01/11 00:09:34;;;;;;;0.10;0.10;;;;;;;;;;1725119;28;20247;-71
2022/01/11 00:10:29;;;;;;;0.55;0.55;;;;;;;;;;1722946;28;20239;-71
2022/01/11 00:11:22;;;;;;;0.20;0.20;;;;;;;;;;1724563;28;20886;-71
2022/01/11 00:12:13;;;;;;;0.20;0.20;;;;;;;;;;1723256;28;20495;-71
2022/01/11 00:13:05;;;;;;;0.10;0.10;;;;;;;;;;1723936;28;20208;-71
2022/01/11 00:13:56;;;;;;;0.40;0.40;;;;;;;;;;1725937;28;20204;-71
2022/01/11 00:14:48;;;;;;;0.22;0.22;;;;;;;;;;1724762;28;20250;-71
2022/01/11 00:15:40;;;;;;;0.50;0.50;;;;;;;;;;1723595;28;20733;-71
2022/01/11 00:16:32;;;;;;;0.20;0.20;;;;;;;;;;1724486;28;20204;-71
2022/01/11 00:17:23;;;;;;;0.20;0.20;;;;;;;;;;1725634;28;20215;-71
2022/01/11 00:18:16;;;;;;;0.50;0.50;;;;;;;;;;1725183;28;20512;-71
2022/01/11 00:19:07;;;;;;;0.70;0.70;;;;;;;;;;1725420;28;20208;-71
2022/01/11 00:19:59;;;;;;;0.40;0.40;;;;;;;;;;1724647;28;20291;-71
2022/01/11 00:20:51;;;;;;;0.80;0.80;;;;;;;;;;1722867;28;20232;-71
2022/01/11 00:21:47;;;;;;;0.85;0.85;;;;;;;;;;1725070;28;20622;-71
2022/01/11 00:22:49;;;;;;;1.02;1.02;;;;;;;;;;1724997;28;20595;-71
2022/01/11 00:24:51;;;;;;;0.50;0.50;;;;;;;;;;1724906;28;20192;-71
2022/01/11 00:25:44;;;;;;;0.50;0.50;;;;;;;;;;1723495;28;20247;-71
2022/01/11 00:26:37;;;;;;;0.50;0.50;;;;;;;;;;1725085;28;20212;-71
2022/01/11 00:27:28;;;;;;;0.70;0.70;;;;;;;;;;1725344;28;20204;-71
2022/01/11 00:28:21;;;;;;;0.52;0.52;;;;;;;;;;1724441;28;20461;-71
2022/01/11 00:29:12;;;;;;;0.85;0.85;;;;;;;;;;1725197;28;20218;-71
2022/01/11 00:30:07;;;;;;;0.70;0.70;;;;;;;;;;1724715;28;20239;-71
2022/01/11 00:31:02;;;;;;;0.50;0.50;;;;;;;;;;1722553;28;20244;-71
2022/01/11 00:31:57;;;;;;;0.88;0.88;;;;;;;;;;1724521;28;20216;-71
2022/01/11 00:32:52;;;;;;;0.60;0.60;;;;;;;;;;1725244;28;20549;-72
2022/01/11 00:33:46;;;;;;;0.98;0.98;;;;;;;;;;1725351;28;20200;-72
2022/01/11 00:34:47;;;;;;;0.90;0.90;;;;;;;;;;1724657;28;20216;-71
2022/01/11 00:35:41;;;;;;;1.10;1.10;;;;;;;;;;1721364;28;20224;-71
2022/01/11 00:36:41;;;;;;;1.50;1.50;;;;;;;;;;1725020;28;20220;-71
2022/01/11 00:37:34;;;;;;;0.70;0.70;;;;;;;;;;1725338;28;20191;-71
2022/01/11 00:38:25;;;;;;;0.68;0.68;;;;;;;;;;1725246;28;20208;-71
2022/01/11 00:39:18;;;;;;;0.75;0.75;;;;;;;;;;1726457;28;20208;-71
2022/01/11 00:40:11;;;;;;;0.60;0.60;;;;;;;;;;1724386;28;20649;-71
2022/01/11 00:41:05;;;;;;;1.17;1.17;;;;;;;;;;1722901;28;20232;-71
2022/01/11 00:41:56;;;;;;;1.15;1.15;;;;;;;;;;1724559;28;20208;-71
2022/01/11 00:42:50;;;;;;;0.68;0.68;;;;;;;;;;1725033;28;20292;-71
2022/01/11 00:43:43;;;;;;;0.90;0.90;;;;;;;;;;1725468;28;20582;-71
2022/01/11 00:44:35;;;;;;;1.10;1.10;;;;;;;;;;1724821;28;20200;-71
2022/01/11 00:45:27;;;;;;;1.15;1.15;;;;;;;;;;1722984;28;20212;-71
2022/01/11 00:46:19;;;;;;;1.30;1.30;;;;;;;;;;1724104;28;20555;-71
2022/01/11 00:47:10;;;;;;;1.10;1.10;;;;;;;;;;1725443;28;20209;-71
2022/01/11 00:48:02;;;;;;;0.60;0.60;;;;;;;;;;1724819;28;20262;-71
2022/01/11 00:48:53;;;;;;;0.68;0.68;;;;;;;;;;1723754;28;20278;-71
2022/01/11 00:49:45;;;;;;;0.75;0.75;;;;;;;;;;1724659;28;20211;-71
2022/01/11 00:50:37;;;;;;;0.63;0.63;;;;;;;;;;1723248;28;20366;-71
2022/01/11 00:51:29;;;;;;;0.70;0.70;;;;;;;;;;1724340;28;20212;-71
2022/01/11 00:52:20;;;;;;;1.30;1.30;;;;;;;;;;1725067;28;20599;-71
2022/01/11 00:53:13;;;;;;;0.70;0.70;;;;;;;;;;1724922;28;20651;-71
2022/01/11 00:54:04;;;;;;;0.47;0.47;;;;;;;;;;1725535;28;20203;-71
2022/01/11 00:54:56;;;;;;;0.70;0.70;;;;;;;;;;1724811;28;20664;-71
2022/01/11 00:55:48;;;;;;;0.75;0.75;;;;;;;;;;1723349;28;20235;-71
2022/01/11 00:56:41;;;;;;;0.85;0.85;;;;;;;;;;1724505;28;20269;-71
2022/01/11 00:57:33;;;;;;;0.70;0.70;;;;;;;;;;1724960;28;20200;-71
2022/01/11 00:58:25;;;;;;;0.55;0.55;;;;;;;;;;1724898;28;20461;-71
2022/01/11 00:59:16;;;;;;;0.50;0.50;;;;;;;;;;1725133;28;20216;-71
2022/01/11 01:00:11;;;;;;;0.50;0.50;;;;;;;;;;1724132;28;20205;-71
2022/01/11 01:01:03;;;;;;;0.70;0.70;;;;;;;;;;1723085;28;20343;-71
2022/01/11 01:01:55;;;;;;;0.63;0.63;;;;;;;;;;1725465;28;20228;-71
2022/01/11 01:02:46;;;;;;;0.60;0.60;;;;;;;;;;1725115;28;20954;-71
2022/01/11 01:03:38;;;;;;;0.30;0.30;;;;;;;;;;1725015;28;20208;-71
2022/01/11 01:04:30;;;;;;;0.40;0.40;;;;;;;;;;1724797;28;20281;-71
2022/01/11 01:05:22;;;;;;;0.43;0.43;;;;;;;;;;1723510;28;20230;-71
2022/01/11 01:06:16;;;;;;;0.28;0.28;;;;;;;;;;1724515;28;20244;-71
2022/01/11 01:07:08;;;;;;;0.43;0.43;;;;;;;;;;1725219;28;20283;-71
2022/01/11 01:08:00;;;;;;;0.40;0.40;;;;;;;;;;1724846;28;20258;-71
2022/01/11 01:08:52;;;;;;;0.50;0.50;;;;;;;;;;1725506;28;20230;-71
2022/01/11 01:09:52;;;;;;;1.00;1.00;;;;;;;;;;1723772;28;20543;-71
2022/01/11 01:10:47;;;;;;;1.20;1.20;;;;;;;;;;1722835;28;20228;-71
2022/01/11 01:11:38;;;;;;;1.17;1.17;;;;;;;;;;1724722;28;20295;-71
2022/01/11 01:12:33;;;;;;;1.13;1.13;;;;;;;;;;1725339;28;20912;-71
2022/01/11 01:13:26;;;;;;;0.63;0.63;;;;;;;;;;1724979;28;20207;-71
2022/01/11 01:14:18;;;;;;;1.35;1.35;;;;;;;;;;1725201;28;20258;-71
2022/01/11 01:15:12;;;;;;;0.30;0.30;;;;;;;;;;1724171;28;20208;-71
2022/01/11 01:16:04;;;;;;;0.50;0.50;;;;;;;;;;1716812;28;20248;-71
2022/01/11 01:16:56;;;;;;;0.45;0.45;;;;;;;;;;1718856;28;20197;-71
2022/01/11 01:17:47;;;;;;;0.73;0.73;;;;;;;;;;1717881;28;20224;-71
2022/01/11 01:18:40;;;;;;;0.70;0.70;;;;;;;;;;1718614;28;20263;-71
2022/01/11 01:19:31;;;;;;;0.40;0.40;;;;;;;;;;1718588;28;20204;-71
2022/01/11 01:20:23;;;;;;;0.57;0.57;;;;;;;;;;1716863;28;20216;-71
2022/01/11 01:21:14;;;;;;;0.55;0.55;;;;;;;;;;1716988;28;20216;-71
2022/01/11 01:22:07;;;;;;;0.60;0.60;;;;;;;;;;1720305;28;20213;-71
2022/01/11 01:22:58;;;;;;;1.00;1.00;;;;;;;;;;1719325;28;20506;-71
2022/01/11 01:23:50;;;;;;;0.60;0.60;;;;;;;;;;1718298;28;20228;-71
2022/01/11 01:24:42;;;;;;;0.30;0.30;;;;;;;;;;1718121;28;20205;-71
2022/01/11 01:25:34;;;;;;;0.40;0.40;;;;;;;;;;1718824;28;20496;-71
2022/01/11 01:26:25;;;;;;;0.70;0.70;;;;;;;;;;1718049;28;20209;-71
2022/01/11 01:27:17;;;;;;;0.50;0.50;;;;;;;;;;1720177;28;20619;-71
2022/01/11 01:28:10;;;;;;;0.30;0.30;;;;;;;;;;1717894;28;20209;-71
2022/01/11 01:29:02;;;;;;;0.30;0.30;;;;;;;;;;1713729;28;20212;-71
2022/01/11 01:29:53;;;;;;;0.40;0.40;;;;;;;;;;1719722;28;20216;-71
2022/01/11 01:30:46;;;;;;;0.38;0.38;;;;;;;;;;1716960;28;20570;-71
2022/01/11 01:31:38;;;;;;;0.65;0.65;;;;;;;;;;1719987;28;20539;-71
2022/01/11 01:32:30;;;;;;;0.20;0.20;;;;;;;;;;1718375;28;20228;-71
2022/01/11 01:33:21;;;;;;;0.25;0.25;;;;;;;;;;1720594;28;20561;-71
2022/01/11 01:34:14;;;;;;;0.43;0.43;;;;;;;;;;1717768;28;20212;-70
2022/01/11 01:35:05;;;;;;;0.35;0.35;;;;;;;;;;1718341;28;20650;-71
2022/01/11 01:36:01;;;;;;;0.35;0.35;;;;;;;;;;1722899;28;20523;-71
2022/01/11 01:36:52;;;;;;;0.20;0.20;;;;;;;;;;1724994;28;20204;-71
2022/01/11 01:37:45;;;;;;;0.40;0.40;;;;;;;;;;1724726;28;20200;-71
2022/01/11 01:38:36;;;;;;;0.35;0.35;;;;;;;;;;1724038;28;20204;-71
2022/01/11 01:39:28;;;;;;;0.30;0.30;;;;;;;;;;1722848;28;20322;-71
2022/01/11 01:40:19;;;;;;;0.40;0.40;;;;;;;;;;1723217;28;20484;-71
2022/01/11 01:41:15;;;;;;;0.50;0.50;;;;;;;;;;1724273;28;20263;-71
2022/01/11 01:42:08;;;;;;;0.43;0.43;;;;;;;;;;1725445;28;20227;-71
2022/01/11 01:43:00;;;;;;;0.45;0.45;;;;;;;;;;1724644;28;20235;-71
2022/01/11 01:43:55;;;;;;;0.52;0.52;;;;;;;;;;1725475;28;20204;-71
2022/01/11 01:44:48;;;;;;;0.40;0.40;;;;;;;;;;1725154;28;20200;-71
2022/01/11 01:45:40;;;;;;;0.40;0.40;;;;;;;;;;1722656;28;20262;-71
2022/01/11 01:46:32;;;;;;;0.20;0.20;;;;;;;;;;1725525;28;20200;-71
2022/01/11 01:47:24;;;;;;;0.63;0.63;;;;;;;;;;1725409;28;20212;-71
2022/01/11 01:48:16;;;;;;;0.70;0.70;;;;;;;;;;1724946;28;20208;-71
2022/01/11 01:49:10;;;;;;;0.30;0.30;;;;;;;;;;1725179;28;20212;-71
2022/01/11 01:50:02;;;;;;;0.28;0.28;;;;;;;;;;1724840;28;20200;-71
2022/01/11 01:50:54;;;;;;;0.30;0.30;;;;;;;;;;1703272;28;20246;-71
2022/01/11 01:51:47;;;;;;;0.40;0.40;;;;;;;;;;1703576;29;20198;-71
2022/01/11 01:52:38;;;;;;;0.40;0.40;;;;;;;;;;1700227;28;20640;-71
2022/01/11 01:53:31;;;;;;;0.40;0.40;;;;;;;;;;1702168;28;20214;-71
2022/01/11 01:54:23;;;;;;;0.43;0.43;;;;;;;;;;1704379;28;20210;-71
2022/01/11 01:55:15;;;;;;;0.10;0.10;;;;;;;;;;1700386;28;20203;-71
2022/01/11 01:56:07;;;;;;;0.30;0.30;;;;;;;;;;1707085;28;20241;-71
2022/01/11 01:57:00;;;;;;;0.20;0.20;;;;;;;;;;1711292;28;20268;-71
2022/01/11 01:57:51;;;;;;;0.50;0.50;;;;;;;;;;1710835;28;20210;-71
2022/01/11 01:58:44;;;;;;;0.68;0.68;;;;;;;;;;1711620;28;20292;-71
2022/01/11 01:59:37;;;;;;;0.30;0.30;;;;;;;;;;1710831;28;20206;-71
2022/01/11 02:00:30;;;;;;;0.38;0.38;;;;;;;;;;1709643;28;20331;-71
2022/01/11 02:01:21;;;;;;;0.50;0.50;;;;;;;;;;1710838;28;20340;-71
2022/01/11 02:02:14;;;;;;;0.30;0.30;;;;;;;;;;1711865;28;20291;-71
2022/01/11 02:03:06;;;;;;;0.10;0.10;;;;;;;;;;1710687;28;20210;-71
2022/01/11 02:03:58;;;;;;;0.30;0.30;;;;;;;;;;1711695;28;20594;-71
2022/01/11 02:04:50;;;;;;;0.35;0.35;;;;;;;;;;1711204;28;20201;-71
2022/01/11 02:05:42;;;;;;;0.30;0.30;;;;;;;;;;1709713;28;20348;-71
2022/01/11 02:06:34;;;;;;;0.25;0.25;;;;;;;;;;1711096;28;20205;-71
2022/01/11 02:07:26;;;;;;;0.20;0.20;;;;;;;;;;1711677;28;20283;-71
2022/01/11 02:08:18;;;;;;;0.30;0.30;;;;;;;;;;1711238;28;20212;-71
2022/01/11 02:09:11;;;;;;;0.60;0.60;;;;;;;;;;1711253;28;20563;-71
2022/01/11 02:10:05;;;;;;;0.50;0.50;;;;;;;;;;1710831;28;20205;-71
2022/01/11 02:10:56;;;;;;;0.22;0.22;;;;;;;;;;1709296;28;20737;-71
2022/01/11 02:11:48;;;;;;;0.20;0.20;;;;;;;;;;1711320;28;20224;-71
2022/01/11 02:12:41;;;;;;;0.05;0.05;;;;;;;;;;1711462;28;20626;-71
2022/01/11 02:13:33;;;;;;;0.20;0.20;;;;;;;;;;1711499;28;20297;-71
2022/01/11 02:14:26;;;;;;;0.10;0.10;;;;;;;;;;1711516;28;20621;-71
2022/01/11 02:15:20;;;;;;;0.10;0.10;;;;;;;;;;1709817;28;20209;-71
2022/01/11 02:16:12;;;;;;;0.30;0.30;;;;;;;;;;1706832;28;20233;-72
2022/01/11 02:17:05;;;;;;;0.10;0.10;;;;;;;;;;1705213;28;20206;-72
2022/01/11 02:18:06;;;;;;;0.20;0.20;;;;;;;;;;1704779;28;20213;-71
2022/01/11 02:18:58;;;;;;;0.30;0.30;;;;;;;;;;1703631;29;20195;-71
2022/01/11 02:19:49;;;;;;;0.10;0.10;;;;;;;;;;1704162;28;20549;-71
2022/01/11 02:20:45;;;;;;;0.10;0.10;;;;;;;;;;1708115;28;20299;-71
2022/01/11 02:21:38;;;;;;;0.17;0.17;;;;;;;;;;1703967;28;20214;-71
2022/01/11 02:22:30;;;;;;;0.10;0.10;;;;;;;;;;1704610;28;20680;-71
2022/01/11 02:23:21;;;;;;;0.10;0.10;;;;;;;;;;1705985;28;20225;-71
2022/01/11 02:24:13;;;;;;;0.30;0.30;;;;;;;;;;1705922;28;20297;-71
2022/01/11 02:25:05;;;;;;;0.20;0.20;;;;;;;;;;1707345;28;20210;-71
2022/01/11 02:25:58;;;;;;;0.20;0.20;;;;;;;;;;1706735;28;20685;-71
2022/01/11 02:26:49;;;;;;;0.10;0.10;;;;;;;;;;1705507;28;20206;-71
2022/01/11 02:27:42;;;;;;;0.20;0.20;;;;;;;;;;1705391;28;20681;-71
2022/01/11 02:28:33;;;;;;;0.20;0.20;;;;;;;;;;1702568;28;20203;-71
2022/01/11 02:29:26;;;;;;;0.10;0.10;;;;;;;;;;1702105;28;20937;-71
2022/01/11 02:30:17;;;;;;;0.10;0.10;;;;;;;;;;1704693;28;20312;-71
2022/01/11 02:31:12;;;;;;;0.30;0.30;;;;;;;;;;1708770;28;20325;-71
2022/01/11 02:32:04;;;;;;;0.15;0.15;;;;;;;;;;1707716;28;20580;-71
2022/01/11 02:32:56;;;;;;;0.20;0.20;;;;;;;;;;1706605;28;20202;-71
2022/01/11 02:33:48;;;;;;;0.25;0.25;;;;;;;;;;1706889;28;20203;-71
2022/01/11 02:34:40;;;;;;;0.10;0.10;;;;;;;;;;1708976;28;20297;-71
2022/01/11 02:35:31;;;;;;;0.20;0.20;;;;;;;;;;1705456;28;20667;-71
2022/01/11 02:36:26;;;;;;;0.20;0.20;;;;;;;;;;1706810;28;20282;-71
2022/01/11 02:37:18;;;;;;;0.30;0.30;;;;;;;;;;1704594;28;20265;-71
2022/01/11 02:38:10;;;;;;;0.30;0.30;;;;;;;;;;1704598;28;20284;-71
2022/01/11 02:39:01;;;;;;;0.10;0.10;;;;;;;;;;1705315;28;20210;-71
2022/01/11 02:39:53;;;;;;;0.20;0.20;;;;;;;;;;1703658;28;20225;-71
2022/01/11 02:40:45;;;;;;;0.20;0.20;;;;;;;;;;1706313;28;20583;-71
2022/01/11 02:41:37;;;;;;;0.10;0.10;;;;;;;;;;1712389;28;20197;-71
2022/01/11 02:42:28;;;;;;;0.70;0.70;;;;;;;;;;1712629;28;20587;-71
2022/01/11 02:43:20;;;;;;;0.30;0.30;;;;;;;;;;1712149;28;20209;-71
2022/01/11 02:44:11;;;;;;;0.10;0.10;;;;;;;;;;1712770;28;20557;-71
2022/01/11 02:45:04;;;;;;;0.15;0.15;;;;;;;;;;1711620;28;20201;-71
2022/01/11 02:45:55;;;;;;;0.15;0.15;;;;;;;;;;1710631;28;20642;-71
2022/01/11 02:46:47;;;;;;;0.08;0.08;;;;;;;;;;1711024;28;20256;-71
2022/01/11 02:47:38;;;;;;;0.10;0.10;;;;;;;;;;1712592;28;20212;-71
2022/01/11 02:48:31;;;;;;;0.20;0.20;;;;;;;;;;1712337;28;20202;-71
2022/01/11 02:49:22;;;;;;;0.10;0.10;;;;;;;;;;1712178;28;20213;-71
2022/01/11 02:50:14;;;;;;;0.30;0.30;;;;;;;;;;1713295;28;20556;-71
2022/01/11 02:51:06;;;;;;;0.10;0.10;;;;;;;;;;1723773;28;20236;-71
2022/01/11 02:51:59;;;;;;;0.30;0.30;;;;;;;;;;1726272;28;20534;-71
2022/01/11 02:52:51;;;;;;;0.20;0.20;;;;;;;;;;1725874;28;20220;-71
2022/01/11 02:53:43;;;;;;;0.30;0.30;;;;;;;;;;1725730;28;20725;-71
2022/01/11 02:54:34;;;;;;;0.20;0.20;;;;;;;;;;1725479;28;20211;-71
2022/01/11 02:55:26;;;;;;;0.20;0.20;;;;;;;;;;1723929;28;20200;-71
2022/01/11 02:56:18;;;;;;;0.20;0.20;;;;;;;;;;1725795;28;20205;-71
2022/01/11 02:57:10;;;;;;;0.30;0.30;;;;;;;;;;1725295;28;20204;-71
2022/01/11 02:58:02;;;;;;;0.20;0.20;;;;;;;;;;1725638;28;20643;-71
2022/01/11 02:58:54;;;;;;;0.10;0.10;;;;;;;;;;1725780;28;20206;-71
2022/01/11 02:59:45;;;;;;;0.10;0.10;;;;;;;;;;1725304;28;20273;-71
2022/01/11 03:00:39;;;;;;;0.20;0.20;;;;;;;;;;1724068;28;20232;-71
2022/01/11 03:01:30;;;;;;;0.10;0.10;;;;;;;;;;1725417;28;20222;-71
2022/01/11 03:02:22;;;;;;;0.20;0.20;;;;;;;;;;1726152;28;20282;-71
2022/01/11 03:03:14;;;;;;;0.30;0.30;;;;;;;;;;1724674;28;20584;-71
2022/01/11 03:04:06;;;;;;;0.30;0.30;;;;;;;;;;1726040;28;20232;-71
2022/01/11 03:04:58;;;;;;;0.10;0.10;;;;;;;;;;1725688;28;20224;-71
2022/01/11 03:05:50;;;;;;;0.20;0.20;;;;;;;;;;1723683;28;20256;-71
2022/01/11 03:06:43;;;;;;;0.10;0.10;;;;;;;;;;1725873;28;20470;-71
2022/01/11 03:07:36;;;;;;;0.30;0.30;;;;;;;;;;1725782;28;20203;-71
2022/01/11 03:08:28;;;;;;;0.20;0.20;;;;;;;;;;1725307;28;20624;-71
2022/01/11 03:09:21;;;;;;;0.30;0.30;;;;;;;;;;1725104;28;20599;-71
2022/01/11 03:10:21;;;;;;;0.10;0.10;;;;;;;;;;1724535;28;20713;-71
2022/01/11 03:11:15;;;;;;;0.25;0.25;;;;;;;;;;1724580;28;20755;-71
2022/01/11 03:12:07;;;;;;;0.25;0.25;;;;;;;;;;1725062;28;20207;-71
2022/01/11 03:12:59;;;;;;;0.20;0.20;;;;;;;;;;1723951;28;20692;-71
2022/01/11 03:13:50;;;;;;;0.20;0.20;;;;;;;;;;1726072;28;20203;-71
2022/01/11 03:14:42;;;;;;;0.15;0.15;;;;;;;;;;1726051;28;20200;-71
2022/01/11 03:15:34;;;;;;;0.22;0.22;;;;;;;;;;1723530;28;20255;-71
2022/01/11 03:16:26;;;;;;;0.10;0.10;;;;;;;;;;1725517;28;20695;-71
2022/01/11 03:17:17;;;;;;;0.20;0.20;;;;;;;;;;1726268;28;20212;-71
2022/01/11 03:18:10;;;;;;;0.22;0.22;;;;;;;;;;1726023;28;20267;-71
2022/01/11 03:19:02;;;;;;;0.13;0.13;;;;;;;;;;1726294;28;20535;-71
2022/01/11 03:19:54;;;;;;;0.20;0.20;;;;;;;;;;1725122;28;20200;-71
2022/01/11 03:20:47;;;;;;;0.10;0.10;;;;;;;;;;1722685;28;20255;-71
2022/01/11 03:21:39;;;;;;;0.15;0.15;;;;;;;;;;1725636;28;20230;-71
2022/01/11 03:22:31;;;;;;;0.20;0.20;;;;;;;;;;1725579;28;20235;-71
2022/01/11 03:23:24;;;;;;;0.20;0.20;;;;;;;;;;1725705;28;20204;-71
2022/01/11 03:24:16;;;;;;;0.20;0.20;;;;;;;;;;1725731;28;20208;-71
2022/01/11 03:25:12;;;;;;;0.30;0.30;;;;;;;;;;1724845;28;20207;-71
2022/01/11 03:26:04;;;;;;;0.30;0.30;;;;;;;;;;1717112;28;20236;-71
2022/01/11 03:26:56;;;;;;;0.20;0.20;;;;;;;;;;1718117;28;20212;-71
2022/01/11 03:27:48;;;;;;;0.10;0.10;;;;;;;;;;1719005;28;20300;-71
2022/01/11 03:28:39;;;;;;;0.22;0.22;;;;;;;;;;1719063;28;20858;-71
2022/01/11 03:29:31;;;;;;;0.10;0.10;;;;;;;;;;1718465;28;20598;-71
2022/01/11 03:30:23;;;;;;;0.08;0.08;;;;;;;;;;1717491;28;20212;-71
2022/01/11 03:31:15;;;;;;;0.20;0.20;;;;;;;;;;1718806;28;20665;-71
2022/01/11 03:32:07;;;;;;;0.00;0.00;;;;;;;;;;1721906;28;20215;-71
2022/01/11 03:32:59;;;;;;;0.20;0.20;;;;;;;;;;1717986;28;20209;-71
2022/01/11 03:33:50;;;;;;;0.22;0.22;;;;;;;;;;1719212;28;20212;-71
2022/01/11 03:34:45;;;;;;;0.10;0.10;;;;;;;;;;1719472;28;20206;-71
2022/01/11 03:35:36;;;;;;;0.30;0.30;;;;;;;;;;1718731;28;20236;-71
2022/01/11 03:36:29;;;;;;;0.43;0.43;;;;;;;;;;1725079;28;20567;-71
2022/01/11 03:37:20;;;;;;;0.17;0.17;;;;;;;;;;1725849;28;20266;-71
2022/01/11 03:38:13;;;;;;;0.40;0.40;;;;;;;;;;1725130;28;20680;-71
2022/01/11 03:39:05;;;;;;;0.20;0.20;;;;;;;;;;1724367;28;20211;-71
2022/01/11 03:39:58;;;;;;;0.30;0.30;;;;;;;;;;1725998;28;20200;-71
2022/01/11 03:40:49;;;;;;;0.00;0.00;;;;;;;;;;1723084;28;20240;-71
2022/01/11 03:41:41;;;;;;;0.00;0.00;;;;;;;;;;1724984;28;20204;-71
2022/01/11 03:42:32;;;;;;;0.20;0.20;;;;;;;;;;1725712;28;20201;-71
2022/01/11 03:43:26;;;;;;;0.10;0.10;;;;;;;;;;1725552;28;20211;-71
2022/01/11 03:44:17;;;;;;;0.45;0.45;;;;;;;;;;1725495;28;20657;-71
2022/01/11 03:45:11;;;;;;;0.30;0.30;;;;;;;;;;1723379;28;20211;-71
2022/01/11 03:46:04;;;;;;;0.50;0.50;;;;;;;;;;1724199;28;20236;-71
2022/01/11 03:46:56;;;;;;;0.10;0.10;;;;;;;;;;1725604;28;20626;-71
2022/01/11 03:47:47;;;;;;;0.10;0.10;;;;;;;;;;1725343;28;20212;-71
2022/01/11 03:48:39;;;;;;;0.10;0.10;;;;;;;;;;1726090;28;20205;-71
2022/01/11 03:49:31;;;;;;;0.10;0.10;;;;;;;;;;1724920;28;20206;-71
2022/01/11 03:50:23;;;;;;;0.10;0.10;;;;;;;;;;1721895;28;20276;-71
2022/01/11 03:51:14;;;;;;;0.20;0.20;;;;;;;;;;1717798;28;20220;-71
2022/01/11 03:52:07;;;;;;;0.35;0.35;;;;;;;;;;1718823;28;20240;-71
2022/01/11 03:53:00;;;;;;;0.10;0.10;;;;;;;;;;1718537;28;20209;-71
2022/01/11 03:53:57;;;;;;;0.20;0.20;;;;;;;;;;1719283;28;20264;-71
2022/01/11 03:55:03;;;;;;;0.13;0.13;;;;;;;;;;1718419;28;20197;-71
2022/01/11 03:57:05;;;;;;;0.20;0.20;;;;;;;;;;1723568;28;20207;-71
2022/01/11 03:57:57;;;;;;;0.20;0.20;;;;;;;;;;1725009;28;20218;-71
2022/01/11 03:58:50;;;;;;;0.10;0.10;;;;;;;;;;1725722;28;20226;-71
2022/01/11 03:59:41;;;;;;;0.55;0.55;;;;;;;;;;1724652;28;20206;-71
2022/01/11 04:00:33;;;;;;;0.30;0.30;;;;;;;;;;1723600;28;20640;-71
2022/01/11 04:01:25;;;;;;;0.20;0.20;;;;;;;;;;1724989;28;20215;-71
2022/01/11 04:02:17;;;;;;;0.15;0.15;;;;;;;;;;1723147;28;20240;-71
2022/01/11 04:03:09;;;;;;;0.10;0.10;;;;;;;;;;1724679;28;20232;-71
2022/01/11 04:04:01;;;;;;;0.20;0.20;;;;;;;;;;1725776;28;20204;-71
2022/01/11 04:04:53;;;;;;;0.20;0.20;;;;;;;;;;1725270;28;20295;-71
2022/01/11 04:05:46;;;;;;;0.20;0.20;;;;;;;;;;1723810;28;20497;-71
2022/01/11 04:06:38;;;;;;;0.20;0.20;;;;;;;;;;1725131;28;20200;-71
2022/01/11 04:07:30;;;;;;;0.20;0.20;;;;;;;;;;1725502;28;20597;-71
2022/01/11 04:08:23;;;;;;;0.10;0.10;;;;;;;;;;1724794;28;20212;-71
2022/01/11 04:09:15;;;;;;;0.20;0.20;;;;;;;;;;1725995;28;20605;-71
2022/01/11 04:10:10;;;;;;;0.10;0.10;;;;;;;;;;1724351;28;20268;-71
2022/01/11 04:11:02;;;;;;;0.13;0.13;;;;;;;;;;1723976;28;20236;-71
2022/01/11 04:11:53;;;;;;;0.10;0.10;;;;;;;;;;1725618;28;20248;-71
2022/01/11 04:12:48;;;;;;;0.10;0.10;;;;;;;;;;1723342;28;20202;-71
2022/01/11 04:13:40;;;;;;;0.20;0.20;;;;;;;;;;1725574;28;20219;-71
2022/01/11 04:14:31;;;;;;;0.30;0.30;;;;;;;;;;1724304;28;20226;-71
2022/01/11 04:15:23;;;;;;;0.30;0.30;;;;;;;;;;1723479;28;20214;-71
2022/01/11 04:16:15;;;;;;;0.20;0.20;;;;;;;;;;1724859;28;20551;-71
2022/01/11 04:17:07;;;;;;;0.20;0.20;;;;;;;;;;1724486;28;20204;-71
2022/01/11 04:17:58;;;;;;;0.28;0.28;;;;;;;;;;1725175;28;20215;-71
2022/01/11 04:18:51;;;;;;;0.20;0.20;;;;;;;;;;1725419;28;20376;-71
2022/01/11 04:19:42;;;;;;;0.30;0.30;;;;;;;;;;1724828;28;20700;-71
2022/01/11 04:20:34;;;;;;;0.15;0.15;;;;;;;;;;1722751;28;20616;-71
2022/01/11 04:21:25;;;;;;;0.20;0.20;;;;;;;;;;1724768;28;20411;-71
2022/01/11 04:22:18;;;;;;;0.20;0.20;;;;;;;;;;1725957;28;21020;-71
2022/01/11 04:23:12;;;;;;;0.30;0.30;;;;;;;;;;1724715;28;20232;-71
2022/01/11 04:24:04;;;;;;;0.30;0.30;;;;;;;;;;1725479;28;20210;-71
2022/01/11 04:24:55;;;;;;;0.20;0.20;;;;;;;;;;1725027;28;20200;-71
2022/01/11 04:25:49;;;;;;;0.30;0.30;;;;;;;;;;1723563;28;20652;-71
2022/01/11 04:26:40;;;;;;;0.30;0.30;;;;;;;;;;1724449;28;20535;-71
2022/01/11 04:27:32;;;;;;;0.25;0.25;;;;;;;;;;1725432;28;20200;-71
2022/01/11 04:28:25;;;;;;;0.10;0.10;;;;;;;;;;1725677;28;20207;-71
2022/01/11 04:29:17;;;;;;;0.20;0.20;;;;;;;;;;1725013;28;20655;-71
2022/01/11 04:30:13;;;;;;;0.25;0.25;;;;;;;;;;1724254;28;20659;-71
2022/01/11 04:31:05;;;;;;;0.20;0.20;;;;;;;;;;1723252;28;20625;-71
2022/01/11 04:31:57;;;;;;;0.20;0.20;;;;;;;;;;1725525;28;20208;-71
2022/01/11 04:32:49;;;;;;;0.10;0.10;;;;;;;;;;1724489;28;20208;-71
2022/01/11 04:33:43;;;;;;;0.20;0.20;;;;;;;;;;1725459;28;20212;-71
2022/01/11 04:34:35;;;;;;;0.20;0.20;;;;;;;;;;1724915;28;21243;-71
2022/01/11 04:35:26;;;;;;;0.20;0.20;;;;;;;;;;1721800;28;20213;-71
2022/01/11 04:36:18;;;;;;;0.20;0.20;;;;;;;;;;1724964;28;20207;-71
2022/01/11 04:37:10;;;;;;;0.20;0.20;;;;;;;;;;1725597;28;20211;-71
2022/01/11 04:38:02;;;;;;;0.10;0.10;;;;;;;;;;1724619;28;20573;-71
2022/01/11 04:38:53;;;;;;;0.22;0.22;;;;;;;;;;1723326;28;20215;-71
2022/01/11 04:39:45;;;;;;;0.20;0.20;;;;;;;;;;1723896;28;20208;-71
2022/01/11 04:40:36;;;;;;;0.20;0.20;;;;;;;;;;1721352;28;20713;-71
2022/01/11 04:41:30;;;;;;;0.35;0.35;;;;;;;;;;1724365;28;20594;-71
2022/01/11 04:42:21;;;;;;;0.20;0.20;;;;;;;;;;1725816;28;20546;-71
2022/01/11 04:43:13;;;;;;;0.20;0.20;;;;;;;;;;1725012;28;20324;-71
2022/01/11 04:44:05;;;;;;;0.10;0.10;;;;;;;;;;1725035;28;20209;-71
2022/01/11 04:44:57;;;;;;;0.22;0.22;;;;;;;;;;1724392;28;20207;-71
2022/01/11 04:45:48;;;;;;;0.10;0.10;;;;;;;;;;1722769;28;20250;-71
2022/01/11 04:46:41;;;;;;;0.20;0.20;;;;;;;;;;1725119;28;20200;-71
2022/01/11 04:47:32;;;;;;;0.20;0.20;;;;;;;;;;1725221;28;20265;-71
2022/01/11 04:48:24;;;;;;;0.30;0.30;;;;;;;;;;1724924;28;20215;-70
2022/01/11 04:49:16;;;;;;;0.20;0.20;;;;;;;;;;1725363;28;20208;-70
2022/01/11 04:50:09;;;;;;;0.20;0.20;;;;;;;;;;1722984;28;20297;-70
2022/01/11 04:51:02;;;;;;;0.20;0.20;;;;;;;;;;1724250;28;20282;-70
2022/01/11 04:51:54;;;;;;;0.20;0.20;;;;;;;;;;1725408;28;20208;-70
2022/01/11 04:52:46;;;;;;;0.30;0.30;;;;;;;;;;1725190;28;20234;-70
2022/01/11 04:53:38;;;;;;;0.30;0.30;;;;;;;;;;1725662;28;20646;-70
2022/01/11 04:54:30;;;;;;;0.20;0.20;;;;;;;;;;1724911;28;21810;-70
2022/01/11 04:55:21;;;;;;;0.17;0.17;;;;;;;;;;1723517;28;20203;-70
2022/01/11 04:56:13;;;;;;;0.30;0.30;;;;;;;;;;1724685;28;20612;-70
2022/01/11 04:57:06;;;;;;;0.57;0.57;;;;;;;;;;1725286;28;20219;-70
2022/01/11 04:57:59;;;;;;;0.20;0.20;;;;;;;;;;1724889;28;20544;-70
2022/01/11 04:58:50;;;;;;;0.30;0.30;;;;;;;;;;1725427;28;20222;-70
2022/01/11 04:59:42;;;;;;;0.10;0.10;;;;;;;;;;1724786;28;20892;-70
2022/01/11 05:00:33;;;;;;;0.20;0.20;;;;;;;;;;1723018;28;20235;-70
2022/01/11 05:01:26;;;;;;;0.10;0.10;;;;;;;;;;1724361;28;20326;-70
2022/01/11 05:02:17;;;;;;;0.20;0.20;;;;;;;;;;1722596;28;20628;-71
2022/01/11 05:03:09;;;;;;;0.20;0.20;;;;;;;;;;1724676;28;20617;-71
2022/01/11 05:04:00;;;;;;;0.20;0.20;;;;;;;;;;1725847;28;20222;-71
2022/01/11 05:04:52;;;;;;;0.20;0.20;;;;;;;;;;1724744;28;20477;-71
2022/01/11 05:05:43;;;;;;;0.17;0.17;;;;;;;;;;1723544;28;20246;-70
2022/01/11 05:06:36;;;;;;;0.10;0.10;;;;;;;;;;1724910;28;20306;-70
2022/01/11 05:07:27;;;;;;;0.20;0.20;;;;;;;;;;1725501;28;20214;-70
2022/01/11 05:08:19;;;;;;;0.30;0.30;;;;;;;;;;1724188;28;20633;-70
2022/01/11 05:09:10;;;;;;;0.15;0.15;;;;;;;;;;1725193;28;20215;-70
2022/01/11 05:10:04;;;;;;;0.10;0.10;;;;;;;;;;1724845;28;20258;-70
2022/01/11 05:10:55;;;;;;;0.17;0.17;;;;;;;;;;1722469;28;20282;-70
2022/01/11 05:11:47;;;;;;;0.38;0.38;;;;;;;;;;1724652;28;20269;-70
2022/01/11 05:12:40;;;;;;;0.20;0.20;;;;;;;;;;1725039;28;20200;-70
2022/01/11 05:13:32;;;;;;;0.20;0.20;;;;;;;;;;1725149;28;20296;-70
2022/01/11 05:14:24;;;;;;;0.10;0.10;;;;;;;;;;1724216;28;20223;-70
2022/01/11 05:15:18;;;;;;;0.10;0.10;;;;;;;;;;1723441;28;20299;-70
2022/01/11 05:16:09;;;;;;;0.10;0.10;;;;;;;;;;1724208;28;20292;-70
2022/01/11 05:17:01;;;;;;;0.20;0.20;;;;;;;;;;1725021;28;20210;-70